sensor_id;sensor_type;location;lat;lon;timestamp;P1;durP1;ratioP1;P2;durP2;ratioP2
78875;SDS011;68253;52.506;5.486;2023-04-15T00:00:28;7.80;;;1.92;;
78875;SDS011;68253;52.506;5.486;2023-04-15T00:02:54;6.40;;;1.90;;
78875;SDS011;68253;52.506;5.486;2023-04-15T00:05:20;8.23;;;2.58;;
78875;SDS011;68253;52.506;5.486;2023-04-15T00:07:47;7.75;;;2.10;;
78875;SDS011;68253;52.506;5.486;2023-04-15T00:10:13;6.53;;;1.85;;
78875;SDS011;68253;52.506;5.486;2023-04-15T00:12:39;7.82;;;2.15;;
78875;SDS011;68253;52.506;5.486;2023-04-15T00:15:06;8.10;;;2.45;;
78875;SDS011;68253;52.506;5.486;2023-04-15T00:17:34;7.20;;;2.03;;
78875;SDS011;68253;52.506;5.486;2023-04-15T00:20:00;7.85;;;2.85;;
78875;SDS011;68253;52.506;5.486;2023-04-15T00:22:26;6.30;;;1.70;;
78875;SDS011;68253;52.506;5.486;2023-04-15T00:24:53;6.80;;;1.95;;
78875;SDS011;68253;52.506;5.486;2023-04-15T00:27:19;7.43;;;2.00;;
78875;SDS011;68253;52.506;5.486;2023-04-15T00:29:45;10.02;;;3.15;;
78875;SDS011;68253;52.506;5.486;2023-04-15T00:32:11;7.03;;;2.22;;
78875;SDS011;68253;52.506;5.486;2023-04-15T00:34:39;6.93;;;2.30;;
78875;SDS011;68253;52.506;5.486;2023-04-15T00:37:08;6.20;;;1.90;;
78875;SDS011;68253;52.506;5.486;2023-04-15T00:39:35;7.97;;;2.20;;
78875;SDS011;68253;52.506;5.486;2023-04-15T00:42:01;7.68;;;2.10;;
78875;SDS011;68253;52.506;5.486;2023-04-15T00:44:29;6.53;;;1.92;;
78875;SDS011;68253;52.506;5.486;2023-04-15T00:46:55;8.25;;;2.80;;
78875;SDS011;68253;52.506;5.486;2023-04-15T00:49:22;9.43;;;2.55;;
78875;SDS011;68253;52.506;5.486;2023-04-15T00:51:48;7.45;;;2.35;;
78875;SDS011;68253;52.506;5.486;2023-04-15T00:54:14;7.38;;;2.25;;
78875;SDS011;68253;52.506;5.486;2023-04-15T00:56:40;6.05;;;1.98;;
78875;SDS011;68253;52.506;5.486;2023-04-15T00:59:07;8.05;;;2.38;;
78875;SDS011;68253;52.506;5.486;2023-04-15T01:01:34;7.15;;;2.17;;
78875;SDS011;68253;52.506;5.486;2023-04-15T01:04:01;7.05;;;2.17;;
78875;SDS011;68253;52.506;5.486;2023-04-15T01:06:28;7.13;;;2.58;;
78875;SDS011;68253;52.506;5.486;2023-04-15T01:08:56;6.10;;;1.98;;
78875;SDS011;68253;52.506;5.486;2023-04-15T01:11:23;7.03;;;2.17;;
78875;SDS011;68253;52.506;5.486;2023-04-15T01:13:50;8.52;;;2.08;;
78875;SDS011;68253;52.506;5.486;2023-04-15T01:16:17;9.05;;;2.42;;
78875;SDS011;68253;52.506;5.486;2023-04-15T01:18:44;9.82;;;2.72;;
78875;SDS011;68253;52.506;5.486;2023-04-15T01:21:11;7.25;;;2.10;;
78875;SDS011;68253;52.506;5.486;2023-04-15T01:23:38;6.82;;;1.70;;
78875;SDS011;68253;52.506;5.486;2023-04-15T01:26:07;8.77;;;2.20;;
78875;SDS011;68253;52.506;5.486;2023-04-15T01:31:05;7.32;;;2.08;;
78875;SDS011;68253;52.506;5.486;2023-04-15T01:33:35;6.63;;;1.95;;
78875;SDS011;68253;52.506;5.486;2023-04-15T01:36:01;6.15;;;1.92;;
78875;SDS011;68253;52.506;5.486;2023-04-15T01:38:28;7.15;;;2.00;;
78875;SDS011;68253;52.506;5.486;2023-04-15T01:40:55;7.57;;;2.20;;
78875;SDS011;68253;52.506;5.486;2023-04-15T01:43:24;7.30;;;2.50;;
78875;SDS011;68253;52.506;5.486;2023-04-15T01:45:53;7.97;;;2.50;;
78875;SDS011;68253;52.506;5.486;2023-04-15T01:48:20;6.28;;;1.80;;
78875;SDS011;68253;52.506;5.486;2023-04-15T01:50:46;7.65;;;2.70;;
78875;SDS011;68253;52.506;5.486;2023-04-15T01:53:13;6.68;;;2.38;;
78875;SDS011;68253;52.506;5.486;2023-04-15T01:55:40;6.55;;;2.17;;
78875;SDS011;68253;52.506;5.486;2023-04-15T01:58:06;6.45;;;1.88;;
78875;SDS011;68253;52.506;5.486;2023-04-15T02:00:32;6.70;;;2.28;;
78875;SDS011;68253;52.506;5.486;2023-04-15T02:02:58;7.95;;;2.58;;
78875;SDS011;68253;52.506;5.486;2023-04-15T02:05:25;6.75;;;1.85;;
78875;SDS011;68253;52.506;5.486;2023-04-15T02:07:51;7.78;;;3.03;;
78875;SDS011;68253;52.506;5.486;2023-04-15T02:10:18;8.65;;;2.83;;
78875;SDS011;68253;52.506;5.486;2023-04-15T02:12:44;8.35;;;2.60;;
78875;SDS011;68253;52.506;5.486;2023-04-15T02:15:11;8.00;;;2.33;;
78875;SDS011;68253;52.506;5.486;2023-04-15T02:17:37;8.27;;;2.30;;
78875;SDS011;68253;52.506;5.486;2023-04-15T02:20:03;7.47;;;2.83;;
78875;SDS011;68253;52.506;5.486;2023-04-15T02:22:33;7.40;;;2.47;;
78875;SDS011;68253;52.506;5.486;2023-04-15T02:24:59;8.02;;;2.95;;
78875;SDS011;68253;52.506;5.486;2023-04-15T02:27:25;6.85;;;2.20;;
78875;SDS011;68253;52.506;5.486;2023-04-15T02:29:53;6.55;;;2.33;;
78875;SDS011;68253;52.506;5.486;2023-04-15T02:32:19;9.73;;;3.60;;
78875;SDS011;68253;52.506;5.486;2023-04-15T02:34:47;7.10;;;2.10;;
78875;SDS011;68253;52.506;5.486;2023-04-15T02:37:14;8.20;;;2.60;;
78875;SDS011;68253;52.506;5.486;2023-04-15T02:39:40;9.50;;;2.40;;
78875;SDS011;68253;52.506;5.486;2023-04-15T02:42:06;7.47;;;2.22;;
78875;SDS011;68253;52.506;5.486;2023-04-15T02:44:32;6.78;;;2.13;;
78875;SDS011;68253;52.506;5.486;2023-04-15T02:47:02;10.30;;;2.70;;
78875;SDS011;68253;52.506;5.486;2023-04-15T02:49:30;7.15;;;2.15;;
78875;SDS011;68253;52.506;5.486;2023-04-15T02:51:56;7.65;;;2.33;;
78875;SDS011;68253;52.506;5.486;2023-04-15T02:54:24;7.65;;;2.40;;
78875;SDS011;68253;52.506;5.486;2023-04-15T02:56:53;8.45;;;2.55;;
78875;SDS011;68253;52.506;5.486;2023-04-15T02:59:22;8.85;;;2.90;;
78875;SDS011;68253;52.506;5.486;2023-04-15T03:01:48;8.32;;;2.40;;
78875;SDS011;68253;52.506;5.486;2023-04-15T03:04:15;8.35;;;2.83;;
78875;SDS011;68253;52.506;5.486;2023-04-15T03:06:41;8.35;;;2.70;;
78875;SDS011;68253;52.506;5.486;2023-04-15T03:09:08;7.72;;;3.10;;
78875;SDS011;68253;52.506;5.486;2023-04-15T03:11:36;6.63;;;2.20;;
78875;SDS011;68253;52.506;5.486;2023-04-15T03:14:06;8.60;;;2.63;;
78875;SDS011;68253;52.506;5.486;2023-04-15T03:16:34;8.10;;;2.80;;
78875;SDS011;68253;52.506;5.486;2023-04-15T03:19:00;7.68;;;2.97;;
78875;SDS011;68253;52.506;5.486;2023-04-15T03:21:27;9.57;;;3.55;;
78875;SDS011;68253;52.506;5.486;2023-04-15T03:23:53;8.05;;;2.85;;
78875;SDS011;68253;52.506;5.486;2023-04-15T03:26:27;8.57;;;2.83;;
78875;SDS011;68253;52.506;5.486;2023-04-15T03:28:57;7.75;;;2.53;;
78875;SDS011;68253;52.506;5.486;2023-04-15T03:31:24;8.38;;;3.13;;
78875;SDS011;68253;52.506;5.486;2023-04-15T03:33:50;7.43;;;2.67;;
78875;SDS011;68253;52.506;5.486;2023-04-15T03:36:16;7.40;;;2.50;;
78875;SDS011;68253;52.506;5.486;2023-04-15T03:38:42;8.82;;;3.25;;
78875;SDS011;68253;52.506;5.486;2023-04-15T03:41:08;7.40;;;2.38;;
78875;SDS011;68253;52.506;5.486;2023-04-15T03:43:35;7.68;;;2.78;;
78875;SDS011;68253;52.506;5.486;2023-04-15T03:46:01;6.93;;;2.47;;
78875;SDS011;68253;52.506;5.486;2023-04-15T03:48:27;6.30;;;2.10;;
78875;SDS011;68253;52.506;5.486;2023-04-15T03:50:53;9.75;;;3.83;;
78875;SDS011;68253;52.506;5.486;2023-04-15T03:53:20;10.02;;;3.40;;
78875;SDS011;68253;52.506;5.486;2023-04-15T03:55:46;7.28;;;3.13;;
78875;SDS011;68253;52.506;5.486;2023-04-15T03:58:12;9.75;;;3.58;;
78875;SDS011;68253;52.506;5.486;2023-04-15T04:00:39;11.45;;;4.45;;
78875;SDS011;68253;52.506;5.486;2023-04-15T04:03:05;8.63;;;3.13;;
78875;SDS011;68253;52.506;5.486;2023-04-15T04:05:32;9.48;;;3.70;;
78875;SDS011;68253;52.506;5.486;2023-04-15T04:08:01;7.75;;;2.75;;
78875;SDS011;68253;52.506;5.486;2023-04-15T04:10:27;7.97;;;2.58;;
78875;SDS011;68253;52.506;5.486;2023-04-15T04:12:53;8.57;;;3.50;;
78875;SDS011;68253;52.506;5.486;2023-04-15T04:15:19;8.60;;;2.88;;
78875;SDS011;68253;52.506;5.486;2023-04-15T04:17:45;8.57;;;2.90;;
78875;SDS011;68253;52.506;5.486;2023-04-15T04:20:12;8.43;;;2.75;;
78875;SDS011;68253;52.506;5.486;2023-04-15T04:22:38;8.93;;;2.97;;
78875;SDS011;68253;52.506;5.486;2023-04-15T04:25:05;8.82;;;2.90;;
78875;SDS011;68253;52.506;5.486;2023-04-15T04:27:33;7.65;;;3.05;;
78875;SDS011;68253;52.506;5.486;2023-04-15T04:29:59;9.18;;;3.42;;
78875;SDS011;68253;52.506;5.486;2023-04-15T04:32:26;10.90;;;3.67;;
78875;SDS011;68253;52.506;5.486;2023-04-15T04:34:52;11.30;;;3.95;;
78875;SDS011;68253;52.506;5.486;2023-04-15T04:37:18;11.18;;;4.32;;
78875;SDS011;68253;52.506;5.486;2023-04-15T04:39:44;9.35;;;3.50;;
78875;SDS011;68253;52.506;5.486;2023-04-15T04:42:11;8.63;;;3.22;;
78875;SDS011;68253;52.506;5.486;2023-04-15T04:44:37;9.52;;;3.47;;
78875;SDS011;68253;52.506;5.486;2023-04-15T04:47:03;8.82;;;3.72;;
78875;SDS011;68253;52.506;5.486;2023-04-15T04:49:31;9.18;;;3.30;;
78875;SDS011;68253;52.506;5.486;2023-04-15T04:51:57;10.82;;;3.67;;
78875;SDS011;68253;52.506;5.486;2023-04-15T04:54:23;7.55;;;2.92;;
78875;SDS011;68253;52.506;5.486;2023-04-15T04:56:50;8.93;;;3.03;;
78875;SDS011;68253;52.506;5.486;2023-04-15T04:59:16;9.55;;;3.90;;
78875;SDS011;68253;52.506;5.486;2023-04-15T05:01:42;8.48;;;2.97;;
78875;SDS011;68253;52.506;5.486;2023-04-15T05:04:08;9.80;;;3.60;;
78875;SDS011;68253;52.506;5.486;2023-04-15T05:06:34;11.00;;;3.83;;
78875;SDS011;68253;52.506;5.486;2023-04-15T05:09:01;7.80;;;2.97;;
78875;SDS011;68253;52.506;5.486;2023-04-15T05:11:28;9.70;;;3.67;;
78875;SDS011;68253;52.506;5.486;2023-04-15T05:13:54;10.25;;;4.10;;
78875;SDS011;68253;52.506;5.486;2023-04-15T05:16:20;9.15;;;3.45;;
78875;SDS011;68253;52.506;5.486;2023-04-15T05:18:46;7.93;;;3.30;;
78875;SDS011;68253;52.506;5.486;2023-04-15T05:21:12;10.63;;;3.55;;
78875;SDS011;68253;52.506;5.486;2023-04-15T05:23:38;10.13;;;3.70;;
78875;SDS011;68253;52.506;5.486;2023-04-15T05:26:05;9.73;;;3.53;;
78875;SDS011;68253;52.506;5.486;2023-04-15T05:28:31;8.95;;;3.10;;
78875;SDS011;68253;52.506;5.486;2023-04-15T05:30:57;10.27;;;3.92;;
78875;SDS011;68253;52.506;5.486;2023-04-15T05:33:23;9.02;;;3.17;;
78875;SDS011;68253;52.506;5.486;2023-04-15T05:35:50;9.85;;;2.97;;
78875;SDS011;68253;52.506;5.486;2023-04-15T05:38:16;8.15;;;3.13;;
78875;SDS011;68253;52.506;5.486;2023-04-15T05:40:42;8.38;;;2.88;;
78875;SDS011;68253;52.506;5.486;2023-04-15T05:43:08;8.60;;;3.28;;
78875;SDS011;68253;52.506;5.486;2023-04-15T05:45:35;10.73;;;3.47;;
78875;SDS011;68253;52.506;5.486;2023-04-15T05:48:01;7.22;;;3.10;;
78875;SDS011;68253;52.506;5.486;2023-04-15T05:50:27;9.63;;;3.33;;
78875;SDS011;68253;52.506;5.486;2023-04-15T05:52:53;8.23;;;2.97;;
78875;SDS011;68253;52.506;5.486;2023-04-15T05:55:20;9.40;;;2.97;;
78875;SDS011;68253;52.506;5.486;2023-04-15T05:57:46;6.88;;;2.30;;
78875;SDS011;68253;52.506;5.486;2023-04-15T06:00:12;8.57;;;3.35;;
78875;SDS011;68253;52.506;5.486;2023-04-15T06:02:39;9.20;;;2.97;;
78875;SDS011;68253;52.506;5.486;2023-04-15T06:05:06;9.00;;;2.60;;
78875;SDS011;68253;52.506;5.486;2023-04-15T06:07:34;10.18;;;3.38;;
78875;SDS011;68253;52.506;5.486;2023-04-15T06:10:01;8.50;;;3.22;;
78875;SDS011;68253;52.506;5.486;2023-04-15T06:12:28;9.88;;;3.45;;
78875;SDS011;68253;52.506;5.486;2023-04-15T06:14:54;8.63;;;2.80;;
78875;SDS011;68253;52.506;5.486;2023-04-15T06:17:20;8.48;;;2.58;;
78875;SDS011;68253;52.506;5.486;2023-04-15T06:19:46;10.82;;;3.28;;
78875;SDS011;68253;52.506;5.486;2023-04-15T06:22:14;9.07;;;3.00;;
78875;SDS011;68253;52.506;5.486;2023-04-15T06:24:41;9.05;;;3.30;;
78875;SDS011;68253;52.506;5.486;2023-04-15T06:27:07;9.15;;;3.10;;
78875;SDS011;68253;52.506;5.486;2023-04-15T06:29:33;9.02;;;3.42;;
78875;SDS011;68253;52.506;5.486;2023-04-15T06:32:00;8.23;;;3.17;;
78875;SDS011;68253;52.506;5.486;2023-04-15T06:34:26;8.15;;;2.90;;
78875;SDS011;68253;52.506;5.486;2023-04-15T06:36:52;8.60;;;3.33;;
78875;SDS011;68253;52.506;5.486;2023-04-15T06:39:19;8.68;;;3.17;;
78875;SDS011;68253;52.506;5.486;2023-04-15T06:41:45;9.68;;;3.50;;
78875;SDS011;68253;52.506;5.486;2023-04-15T06:44:11;9.05;;;3.38;;
78875;SDS011;68253;52.506;5.486;2023-04-15T06:46:37;11.27;;;3.83;;
78875;SDS011;68253;52.506;5.486;2023-04-15T06:49:04;9.15;;;3.53;;
78875;SDS011;68253;52.506;5.486;2023-04-15T06:51:30;10.40;;;4.47;;
78875;SDS011;68253;52.506;5.486;2023-04-15T06:53:57;9.13;;;3.55;;
78875;SDS011;68253;52.506;5.486;2023-04-15T06:56:23;9.40;;;3.92;;
78875;SDS011;68253;52.506;5.486;2023-04-15T06:58:49;9.60;;;3.75;;
78875;SDS011;68253;52.506;5.486;2023-04-15T07:01:15;8.32;;;3.25;;
78875;SDS011;68253;52.506;5.486;2023-04-15T07:03:41;8.93;;;3.60;;
78875;SDS011;68253;52.506;5.486;2023-04-15T07:06:07;9.02;;;3.22;;
78875;SDS011;68253;52.506;5.486;2023-04-15T07:08:34;8.60;;;3.40;;
78875;SDS011;68253;52.506;5.486;2023-04-15T07:11:00;10.05;;;3.70;;
78875;SDS011;68253;52.506;5.486;2023-04-15T07:13:27;8.85;;;3.33;;
78875;SDS011;68253;52.506;5.486;2023-04-15T07:15:55;8.45;;;3.25;;
78875;SDS011;68253;52.506;5.486;2023-04-15T07:18:21;8.95;;;3.35;;
78875;SDS011;68253;52.506;5.486;2023-04-15T07:20:47;9.93;;;3.90;;
78875;SDS011;68253;52.506;5.486;2023-04-15T07:23:13;11.45;;;4.60;;
78875;SDS011;68253;52.506;5.486;2023-04-15T07:25:40;12.82;;;5.60;;
78875;SDS011;68253;52.506;5.486;2023-04-15T07:28:06;11.07;;;4.38;;
78875;SDS011;68253;52.506;5.486;2023-04-15T07:30:33;11.45;;;4.22;;
78875;SDS011;68253;52.506;5.486;2023-04-15T07:32:59;12.02;;;5.32;;
78875;SDS011;68253;52.506;5.486;2023-04-15T07:35:25;15.07;;;5.65;;
78875;SDS011;68253;52.506;5.486;2023-04-15T07:37:52;10.88;;;3.72;;
78875;SDS011;68253;52.506;5.486;2023-04-15T07:40:18;14.57;;;5.53;;
78875;SDS011;68253;52.506;5.486;2023-04-15T07:42:44;14.02;;;5.50;;
78875;SDS011;68253;52.506;5.486;2023-04-15T07:45:11;14.75;;;6.18;;
78875;SDS011;68253;52.506;5.486;2023-04-15T07:47:37;12.93;;;5.30;;
78875;SDS011;68253;52.506;5.486;2023-04-15T07:50:04;12.77;;;5.07;;
78875;SDS011;68253;52.506;5.486;2023-04-15T07:52:31;15.48;;;6.53;;
78875;SDS011;68253;52.506;5.486;2023-04-15T07:55:06;13.10;;;5.97;;
78875;SDS011;68253;52.506;5.486;2023-04-15T07:57:34;14.20;;;6.25;;
78875;SDS011;68253;52.506;5.486;2023-04-15T08:00:01;13.18;;;5.60;;
78875;SDS011;68253;52.506;5.486;2023-04-15T08:02:38;13.23;;;5.32;;
78875;SDS011;68253;52.506;5.486;2023-04-15T08:05:05;13.43;;;4.97;;
78875;SDS011;68253;52.506;5.486;2023-04-15T08:07:32;14.82;;;6.28;;
78875;SDS011;68253;52.506;5.486;2023-04-15T08:09:58;13.63;;;5.70;;
78875;SDS011;68253;52.506;5.486;2023-04-15T08:12:24;13.23;;;4.60;;
78875;SDS011;68253;52.506;5.486;2023-04-15T08:14:50;9.23;;;3.17;;
78875;SDS011;68253;52.506;5.486;2023-04-15T08:17:16;7.25;;;2.60;;
78875;SDS011;68253;52.506;5.486;2023-04-15T08:19:43;10.20;;;2.95;;
78875;SDS011;68253;52.506;5.486;2023-04-15T08:22:09;7.63;;;2.60;;
78875;SDS011;68253;52.506;5.486;2023-04-15T08:24:39;6.90;;;2.20;;
78875;SDS011;68253;52.506;5.486;2023-04-15T08:27:05;7.35;;;2.28;;
78875;SDS011;68253;52.506;5.486;2023-04-15T08:29:32;7.15;;;2.28;;
78875;SDS011;68253;52.506;5.486;2023-04-15T08:31:59;6.32;;;1.88;;
78875;SDS011;68253;52.506;5.486;2023-04-15T08:34:26;7.30;;;2.00;;
78875;SDS011;68253;52.506;5.486;2023-04-15T08:36:52;6.82;;;2.30;;
78875;SDS011;68253;52.506;5.486;2023-04-15T08:39:18;7.55;;;2.42;;
78875;SDS011;68253;52.506;5.486;2023-04-15T08:41:45;7.35;;;2.30;;
78875;SDS011;68253;52.506;5.486;2023-04-15T08:44:28;6.53;;;2.08;;
78875;SDS011;68253;52.506;5.486;2023-04-15T08:46:56;7.95;;;2.10;;
78875;SDS011;68253;52.506;5.486;2023-04-15T08:49:27;7.22;;;2.22;;
78875;SDS011;68253;52.506;5.486;2023-04-15T08:51:54;7.43;;;2.53;;
78875;SDS011;68253;52.506;5.486;2023-04-15T08:54:22;7.45;;;2.20;;
78875;SDS011;68253;52.506;5.486;2023-04-15T08:56:49;7.80;;;2.60;;
78875;SDS011;68253;52.506;5.486;2023-04-15T08:59:16;7.25;;;2.70;;
78875;SDS011;68253;52.506;5.486;2023-04-15T09:01:42;6.35;;;1.92;;
78875;SDS011;68253;52.506;5.486;2023-04-15T09:04:10;6.30;;;2.00;;
78875;SDS011;68253;52.506;5.486;2023-04-15T09:06:37;7.28;;;2.28;;
78875;SDS011;68253;52.506;5.486;2023-04-15T09:09:04;9.25;;;2.85;;
78875;SDS011;68253;52.506;5.486;2023-04-15T09:11:30;7.97;;;2.65;;
78875;SDS011;68253;52.506;5.486;2023-04-15T09:13:57;6.78;;;1.95;;
78875;SDS011;68253;52.506;5.486;2023-04-15T09:16:23;7.65;;;2.63;;
78875;SDS011;68253;52.506;5.486;2023-04-15T09:18:49;6.13;;;2.20;;
78875;SDS011;68253;52.506;5.486;2023-04-15T09:21:16;7.20;;;2.22;;
78875;SDS011;68253;52.506;5.486;2023-04-15T09:24:00;6.90;;;2.20;;
78875;SDS011;68253;52.506;5.486;2023-04-15T09:26:37;7.57;;;2.88;;
78875;SDS011;68253;52.506;5.486;2023-04-15T09:29:05;8.00;;;2.60;;
78875;SDS011;68253;52.506;5.486;2023-04-15T09:31:32;6.80;;;1.98;;
78875;SDS011;68253;52.506;5.486;2023-04-15T09:33:58;8.43;;;2.80;;
78875;SDS011;68253;52.506;5.486;2023-04-15T09:36:25;9.70;;;3.65;;
78875;SDS011;68253;52.506;5.486;2023-04-15T09:41:24;7.68;;;2.63;;
78875;SDS011;68253;52.506;5.486;2023-04-15T09:43:50;7.45;;;2.70;;
78875;SDS011;68253;52.506;5.486;2023-04-15T09:46:17;6.90;;;2.33;;
78875;SDS011;68253;52.506;5.486;2023-04-15T09:48:43;6.70;;;2.00;;
78875;SDS011;68253;52.506;5.486;2023-04-15T09:51:09;8.15;;;2.50;;
78875;SDS011;68253;52.506;5.486;2023-04-15T09:53:36;7.15;;;2.30;;
78875;SDS011;68253;52.506;5.486;2023-04-15T09:56:04;7.72;;;2.03;;
78875;SDS011;68253;52.506;5.486;2023-04-15T09:58:33;5.55;;;1.45;;
78875;SDS011;68253;52.506;5.486;2023-04-15T10:01:02;6.63;;;1.83;;
78875;SDS011;68253;52.506;5.486;2023-04-15T10:03:33;5.13;;;1.70;;
78875;SDS011;68253;52.506;5.486;2023-04-15T10:06:03;7.28;;;1.90;;
78875;SDS011;68253;52.506;5.486;2023-04-15T10:08:32;4.85;;;1.88;;
78875;SDS011;68253;52.506;5.486;2023-04-15T10:11:02;4.78;;;1.38;;
78875;SDS011;68253;52.506;5.486;2023-04-15T10:13:30;7.60;;;1.90;;
78875;SDS011;68253;52.506;5.486;2023-04-15T10:16:12;6.82;;;1.95;;
78875;SDS011;68253;52.506;5.486;2023-04-15T10:18:42;7.20;;;2.17;;
78875;SDS011;68253;52.506;5.486;2023-04-15T10:21:09;5.18;;;1.30;;
78875;SDS011;68253;52.506;5.486;2023-04-15T10:23:38;5.63;;;1.70;;
78875;SDS011;68253;52.506;5.486;2023-04-15T10:26:05;3.88;;;1.20;;
78875;SDS011;68253;52.506;5.486;2023-04-15T10:28:32;3.97;;;1.10;;
78875;SDS011;68253;52.506;5.486;2023-04-15T10:30:58;4.95;;;1.50;;
78875;SDS011;68253;52.506;5.486;2023-04-15T10:33:24;5.40;;;1.50;;
78875;SDS011;68253;52.506;5.486;2023-04-15T10:35:54;5.65;;;1.58;;
78875;SDS011;68253;52.506;5.486;2023-04-15T10:41:20;7.35;;;1.73;;
78875;SDS011;68253;52.506;5.486;2023-04-15T10:43:59;4.93;;;1.55;;
78875;SDS011;68253;52.506;5.486;2023-04-15T10:46:34;4.72;;;1.33;;
78875;SDS011;68253;52.506;5.486;2023-04-15T10:49:11;5.93;;;1.50;;
78875;SDS011;68253;52.506;5.486;2023-04-15T10:51:39;8.38;;;1.90;;
78875;SDS011;68253;52.506;5.486;2023-04-15T10:54:11;6.25;;;1.65;;
78875;SDS011;68253;52.506;5.486;2023-04-15T11:02:00;5.78;;;1.30;;
78875;SDS011;68253;52.506;5.486;2023-04-15T11:12:45;3.58;;;1.10;;
78875;SDS011;68253;52.506;5.486;2023-04-15T11:18:19;4.35;;;1.30;;
78875;SDS011;68253;52.506;5.486;2023-04-15T11:20:47;3.30;;;1.13;;
78875;SDS011;68253;52.506;5.486;2023-04-15T11:23:20;4.25;;;1.20;;
78875;SDS011;68253;52.506;5.486;2023-04-15T11:26:11;4.93;;;1.17;;
78875;SDS011;68253;52.506;5.486;2023-04-15T11:28:39;3.88;;;1.02;;
78875;SDS011;68253;52.506;5.486;2023-04-15T11:31:10;5.53;;;1.30;;
78875;SDS011;68253;52.506;5.486;2023-04-15T11:33:37;4.18;;;1.13;;
78875;SDS011;68253;52.506;5.486;2023-04-15T11:36:10;4.60;;;1.10;;
78875;SDS011;68253;52.506;5.486;2023-04-15T11:38:37;4.78;;;1.10;;
78875;SDS011;68253;52.506;5.486;2023-04-15T11:41:07;4.18;;;1.27;;
78875;SDS011;68253;52.506;5.486;2023-04-15T11:43:36;5.35;;;1.23;;
78875;SDS011;68253;52.506;5.486;2023-04-15T11:46:02;4.10;;;1.02;;
78875;SDS011;68253;52.506;5.486;2023-04-15T11:48:30;4.70;;;1.00;;
78875;SDS011;68253;52.506;5.486;2023-04-15T11:51:01;5.63;;;1.17;;
78875;SDS011;68253;52.506;5.486;2023-04-15T11:53:42;3.55;;;0.90;;
78875;SDS011;68253;52.506;5.486;2023-04-15T11:56:16;3.97;;;1.10;;
78875;SDS011;68253;52.506;5.486;2023-04-15T11:58:44;4.95;;;0.90;;
78875;SDS011;68253;52.506;5.486;2023-04-15T12:01:11;3.58;;;0.90;;
78875;SDS011;68253;52.506;5.486;2023-04-15T12:03:38;3.72;;;1.02;;
78875;SDS011;68253;52.506;5.486;2023-04-15T12:08:49;5.07;;;0.82;;
78875;SDS011;68253;52.506;5.486;2023-04-15T12:11:29;4.03;;;0.90;;
78875;SDS011;68253;52.506;5.486;2023-04-15T12:13:58;1.65;;;0.60;;
78875;SDS011;68253;52.506;5.486;2023-04-15T12:16:29;4.50;;;0.77;;
78875;SDS011;68253;52.506;5.486;2023-04-15T12:18:56;3.17;;;0.70;;
78875;SDS011;68253;52.506;5.486;2023-04-15T12:21:24;2.13;;;0.60;;
78875;SDS011;68253;52.506;5.486;2023-04-15T12:23:53;4.75;;;0.93;;
78875;SDS011;68253;52.506;5.486;2023-04-15T12:26:30;2.03;;;0.70;;
78875;SDS011;68253;52.506;5.486;2023-04-15T12:29:05;3.13;;;0.70;;
78875;SDS011;68253;52.506;5.486;2023-04-15T12:31:33;3.88;;;0.60;;
78875;SDS011;68253;52.506;5.486;2023-04-15T12:34:01;3.50;;;0.93;;
78875;SDS011;68253;52.506;5.486;2023-04-15T12:36:29;3.72;;;0.70;;
78875;SDS011;68253;52.506;5.486;2023-04-15T12:39:01;2.80;;;0.70;;
78875;SDS011;68253;52.506;5.486;2023-04-15T12:41:28;2.90;;;0.70;;
78875;SDS011;68253;52.506;5.486;2023-04-15T12:43:55;2.50;;;0.73;;
78875;SDS011;68253;52.506;5.486;2023-04-15T12:46:22;1.92;;;0.50;;
78875;SDS011;68253;52.506;5.486;2023-04-15T12:48:48;2.38;;;0.60;;
78875;SDS011;68253;52.506;5.486;2023-04-15T12:51:15;3.05;;;0.75;;
78875;SDS011;68253;52.506;5.486;2023-04-15T12:53:42;5.72;;;1.10;;
78875;SDS011;68253;52.506;5.486;2023-04-15T12:56:08;6.05;;;1.10;;
78875;SDS011;68253;52.506;5.486;2023-04-15T12:58:34;7.70;;;0.95;;
78875;SDS011;68253;52.506;5.486;2023-04-15T13:01:00;6.57;;;1.10;;
78875;SDS011;68253;52.506;5.486;2023-04-15T13:03:27;3.95;;;0.88;;
78875;SDS011;68253;52.506;5.486;2023-04-15T13:05:53;3.33;;;0.80;;
78875;SDS011;68253;52.506;5.486;2023-04-15T13:08:19;5.35;;;0.88;;
78875;SDS011;68253;52.506;5.486;2023-04-15T13:10:46;2.95;;;0.65;;
78875;SDS011;68253;52.506;5.486;2023-04-15T13:13:12;2.10;;;0.57;;
78875;SDS011;68253;52.506;5.486;2023-04-15T13:15:38;3.00;;;0.75;;
78875;SDS011;68253;52.506;5.486;2023-04-15T13:18:05;4.13;;;0.88;;
78875;SDS011;68253;52.506;5.486;2023-04-15T13:20:32;3.00;;;0.88;;
78875;SDS011;68253;52.506;5.486;2023-04-15T13:22:58;2.17;;;0.63;;
78875;SDS011;68253;52.506;5.486;2023-04-15T13:25:24;3.25;;;0.80;;
78875;SDS011;68253;52.506;5.486;2023-04-15T13:27:50;4.88;;;1.10;;
78875;SDS011;68253;52.506;5.486;2023-04-15T13:30:16;6.55;;;1.02;;
78875;SDS011;68253;52.506;5.486;2023-04-15T13:32:43;3.85;;;0.95;;
78875;SDS011;68253;52.506;5.486;2023-04-15T13:35:09;7.20;;;1.08;;
78875;SDS011;68253;52.506;5.486;2023-04-15T13:37:35;3.60;;;1.00;;
78875;SDS011;68253;52.506;5.486;2023-04-15T13:40:01;3.53;;;0.60;;
78875;SDS011;68253;52.506;5.486;2023-04-15T13:42:27;4.43;;;0.80;;
78875;SDS011;68253;52.506;5.486;2023-04-15T13:44:54;2.92;;;0.70;;
78875;SDS011;68253;52.506;5.486;2023-04-15T13:47:20;4.03;;;0.82;;
78875;SDS011;68253;52.506;5.486;2023-04-15T13:49:46;5.22;;;0.93;;
78875;SDS011;68253;52.506;5.486;2023-04-15T13:52:12;4.00;;;0.70;;
78875;SDS011;68253;52.506;5.486;2023-04-15T13:54:39;7.80;;;1.50;;
78875;SDS011;68253;52.506;5.486;2023-04-15T13:57:05;6.63;;;1.20;;
78875;SDS011;68253;52.506;5.486;2023-04-15T13:59:34;4.03;;;0.88;;
78875;SDS011;68253;52.506;5.486;2023-04-15T14:02:01;5.47;;;1.20;;
78875;SDS011;68253;52.506;5.486;2023-04-15T14:04:27;3.60;;;0.50;;
78875;SDS011;68253;52.506;5.486;2023-04-15T14:06:53;4.13;;;0.68;;
78875;SDS011;68253;52.506;5.486;2023-04-15T14:09:19;4.30;;;0.70;;
78875;SDS011;68253;52.506;5.486;2023-04-15T14:11:48;2.35;;;0.60;;
78875;SDS011;68253;52.506;5.486;2023-04-15T14:14:15;5.78;;;0.90;;
78875;SDS011;68253;52.506;5.486;2023-04-15T14:16:41;5.82;;;0.80;;
78875;SDS011;68253;52.506;5.486;2023-04-15T14:19:07;5.28;;;0.57;;
78875;SDS011;68253;52.506;5.486;2023-04-15T14:21:33;5.10;;;0.68;;
78875;SDS011;68253;52.506;5.486;2023-04-15T14:24:00;3.47;;;0.52;;
78875;SDS011;68253;52.506;5.486;2023-04-15T14:26:26;5.55;;;0.65;;
78875;SDS011;68253;52.506;5.486;2023-04-15T14:28:52;3.38;;;0.60;;
78875;SDS011;68253;52.506;5.486;2023-04-15T14:31:18;7.45;;;0.88;;
78875;SDS011;68253;52.506;5.486;2023-04-15T14:33:44;4.78;;;0.65;;
78875;SDS011;68253;52.506;5.486;2023-04-15T14:36:10;6.95;;;0.80;;
78875;SDS011;68253;52.506;5.486;2023-04-15T14:38:36;4.97;;;0.77;;
78875;SDS011;68253;52.506;5.486;2023-04-15T14:41:04;9.02;;;1.13;;
78875;SDS011;68253;52.506;5.486;2023-04-15T14:43:31;2.90;;;0.38;;
78875;SDS011;68253;52.506;5.486;2023-04-15T14:45:57;6.03;;;0.77;;
78875;SDS011;68253;52.506;5.486;2023-04-15T14:48:24;6.28;;;0.60;;
78875;SDS011;68253;52.506;5.486;2023-04-15T14:50:51;5.15;;;0.60;;
78875;SDS011;68253;52.506;5.486;2023-04-15T14:53:17;6.53;;;0.60;;
78875;SDS011;68253;52.506;5.486;2023-04-15T14:55:43;5.70;;;0.77;;
78875;SDS011;68253;52.506;5.486;2023-04-15T14:58:10;3.80;;;0.60;;
78875;SDS011;68253;52.506;5.486;2023-04-15T15:00:39;4.65;;;0.68;;
78875;SDS011;68253;52.506;5.486;2023-04-15T15:03:09;4.35;;;0.68;;
78875;SDS011;68253;52.506;5.486;2023-04-15T15:05:39;4.20;;;0.70;;
78875;SDS011;68253;52.506;5.486;2023-04-15T15:08:06;6.60;;;0.90;;
78875;SDS011;68253;52.506;5.486;2023-04-15T15:10:34;7.88;;;1.20;;
78875;SDS011;68253;52.506;5.486;2023-04-15T15:13:04;4.53;;;0.70;;